Burns, Mississippi
Current Conditions -  °F | °C
As of 12:54 PM on Thursday 30 Oct 2014 (Local Time) from KJAN Reporting Station
Clear Clear  
Wind Chill: 71°   Ceiling: Unl
Heat Index: 71°   Visibility: 10mi
Dew Point: 38°   Wind: 8mph
Humidity: 30%   Direction: 360°N
Pressure: 30.12"   Gusts: NA
Location:  32.0729°N, 89.5094°W
Report Text: KJAN 301754Z 36007KT 10SM CLR 22/03 A3012 RMK AO2 SLP196 T02170033 10217 20050 58019
Loading
Personal Weather Stations






























Interactive Weather Map
Tropical Storm Tracking
New forecast layout! Learn more

10-Day Weather Forecast

Advertisements
Track Severe Weather on mobile